sensor_id;sensor_type;location;lat;lon;timestamp;P1;durP1;ratioP1;P2;durP2;ratioP2
7767;SDS011;3928;42.626;23.382;2023-11-21T00:02:07;4.07;;;3.67;;
7767;SDS011;3928;42.626;23.382;2023-11-21T00:04:34;8.63;;;4.70;;
7767;SDS011;3928;42.626;23.382;2023-11-21T00:07:02;5.13;;;3.97;;
7767;SDS011;3928;42.626;23.382;2023-11-21T00:09:31;5.93;;;3.90;;
7767;SDS011;3928;42.626;23.382;2023-11-21T00:11:58;5.80;;;3.93;;
7767;SDS011;3928;42.626;23.382;2023-11-21T00:14:25;4.67;;;3.80;;
7767;SDS011;3928;42.626;23.382;2023-11-21T00:16:52;6.20;;;3.90;;
7767;SDS011;3928;42.626;23.382;2023-11-21T00:19:20;4.63;;;3.67;;
7767;SDS011;3928;42.626;23.382;2023-11-21T00:21:47;5.53;;;3.80;;
7767;SDS011;3928;42.626;23.382;2023-11-21T00:24:15;6.03;;;3.83;;
7767;SDS011;3928;42.626;23.382;2023-11-21T00:26:42;4.73;;;3.77;;
7767;SDS011;3928;42.626;23.382;2023-11-21T00:29:09;5.40;;;4.20;;
7767;SDS011;3928;42.626;23.382;2023-11-21T00:31:36;6.17;;;4.07;;
7767;SDS011;3928;42.626;23.382;2023-11-21T00:34:03;5.37;;;3.50;;
7767;SDS011;3928;42.626;23.382;2023-11-21T00:36:30;6.63;;;4.07;;
7767;SDS011;3928;42.626;23.382;2023-11-21T00:38:58;7.30;;;3.77;;
7767;SDS011;3928;42.626;23.382;2023-11-21T00:41:27;5.40;;;3.77;;
7767;SDS011;3928;42.626;23.382;2023-11-21T00:43:54;6.63;;;4.00;;
7767;SDS011;3928;42.626;23.382;2023-11-21T00:46:21;5.93;;;3.90;;
7767;SDS011;3928;42.626;23.382;2023-11-21T00:48:49;6.03;;;3.70;;
7767;SDS011;3928;42.626;23.382;2023-11-21T00:51:16;4.73;;;3.73;;
7767;SDS011;3928;42.626;23.382;2023-11-21T00:53:43;5.00;;;3.93;;
7767;SDS011;3928;42.626;23.382;2023-11-21T00:56:09;4.93;;;3.73;;
7767;SDS011;3928;42.626;23.382;2023-11-21T00:58:38;5.70;;;4.27;;
7767;SDS011;3928;42.626;23.382;2023-11-21T01:01:07;6.87;;;4.37;;
7767;SDS011;3928;42.626;23.382;2023-11-21T01:03:34;5.30;;;4.10;;
7767;SDS011;3928;42.626;23.382;2023-11-21T01:06:01;5.50;;;4.47;;
7767;SDS011;3928;42.626;23.382;2023-11-21T01:08:29;7.83;;;4.77;;
7767;SDS011;3928;42.626;23.382;2023-11-21T01:10:56;6.67;;;4.70;;
7767;SDS011;3928;42.626;23.382;2023-11-21T01:13:23;7.30;;;5.27;;
7767;SDS011;3928;42.626;23.382;2023-11-21T01:15:54;6.20;;;4.30;;
7767;SDS011;3928;42.626;23.382;2023-11-21T01:18:21;5.50;;;4.13;;
7767;SDS011;3928;42.626;23.382;2023-11-21T01:20:50;4.93;;;3.87;;
7767;SDS011;3928;42.626;23.382;2023-11-21T01:23:18;4.07;;;3.13;;
7767;SDS011;3928;42.626;23.382;2023-11-21T01:25:45;4.17;;;3.40;;
7767;SDS011;3928;42.626;23.382;2023-11-21T01:28:12;4.43;;;3.17;;
7767;SDS011;3928;42.626;23.382;2023-11-21T01:30:39;3.77;;;3.40;;
7767;SDS011;3928;42.626;23.382;2023-11-21T01:33:07;4.63;;;3.43;;
7767;SDS011;3928;42.626;23.382;2023-11-21T01:35:35;3.40;;;3.10;;
7767;SDS011;3928;42.626;23.382;2023-11-21T01:38:02;4.80;;;3.70;;
7767;SDS011;3928;42.626;23.382;2023-11-21T01:40:30;6.33;;;4.00;;
7767;SDS011;3928;42.626;23.382;2023-11-21T01:42:56;3.70;;;3.27;;
7767;SDS011;3928;42.626;23.382;2023-11-21T01:45:23;4.33;;;3.50;;
7767;SDS011;3928;42.626;23.382;2023-11-21T01:47:51;5.37;;;3.53;;
7767;SDS011;3928;42.626;23.382;2023-11-21T01:50:20;4.90;;;3.57;;
7767;SDS011;3928;42.626;23.382;2023-11-21T01:52:47;4.90;;;3.77;;
7767;SDS011;3928;42.626;23.382;2023-11-21T01:55:15;4.13;;;3.33;;
7767;SDS011;3928;42.626;23.382;2023-11-21T01:57:45;7.10;;;3.77;;
7767;SDS011;3928;42.626;23.382;2023-11-21T02:00:12;7.40;;;4.63;;
7767;SDS011;3928;42.626;23.382;2023-11-21T02:02:44;9.53;;;5.17;;
7767;SDS011;3928;42.626;23.382;2023-11-21T02:05:12;6.57;;;5.20;;
7767;SDS011;3928;42.626;23.382;2023-11-21T02:07:43;12.07;;;5.83;;
7767;SDS011;3928;42.626;23.382;2023-11-21T02:10:13;8.97;;;6.23;;
7767;SDS011;3928;42.626;23.382;2023-11-21T02:12:40;11.83;;;5.80;;
7767;SDS011;3928;42.626;23.382;2023-11-21T02:15:08;7.70;;;5.00;;
7767;SDS011;3928;42.626;23.382;2023-11-21T02:17:40;5.50;;;4.37;;
7767;SDS011;3928;42.626;23.382;2023-11-21T02:20:09;8.43;;;4.13;;
7767;SDS011;3928;42.626;23.382;2023-11-21T02:22:40;8.67;;;3.70;;
7767;SDS011;3928;42.626;23.382;2023-11-21T02:25:09;5.17;;;3.30;;
7767;SDS011;3928;42.626;23.382;2023-11-21T02:27:36;4.73;;;3.57;;
7767;SDS011;3928;42.626;23.382;2023-11-21T02:30:04;4.07;;;3.30;;
7767;SDS011;3928;42.626;23.382;2023-11-21T02:32:33;8.17;;;4.23;;
7767;SDS011;3928;42.626;23.382;2023-11-21T02:35:00;5.53;;;3.73;;
7767;SDS011;3928;42.626;23.382;2023-11-21T02:37:27;4.53;;;3.13;;
7767;SDS011;3928;42.626;23.382;2023-11-21T02:39:54;5.80;;;3.93;;
7767;SDS011;3928;42.626;23.382;2023-11-21T02:42:22;4.30;;;3.40;;
7767;SDS011;3928;42.626;23.382;2023-11-21T02:44:49;6.13;;;3.87;;
7767;SDS011;3928;42.626;23.382;2023-11-21T02:47:16;5.17;;;3.73;;
7767;SDS011;3928;42.626;23.382;2023-11-21T02:49:43;5.37;;;3.87;;
7767;SDS011;3928;42.626;23.382;2023-11-21T02:52:10;6.60;;;4.80;;
7767;SDS011;3928;42.626;23.382;2023-11-21T02:54:36;10.07;;;5.93;;
7767;SDS011;3928;42.626;23.382;2023-11-21T02:57:03;13.00;;;7.27;;
7767;SDS011;3928;42.626;23.382;2023-11-21T02:59:32;11.83;;;6.50;;
7767;SDS011;3928;42.626;23.382;2023-11-21T03:02:00;14.07;;;7.23;;
7767;SDS011;3928;42.626;23.382;2023-11-21T03:04:26;8.67;;;5.60;;
7767;SDS011;3928;42.626;23.382;2023-11-21T03:06:53;6.43;;;5.10;;
7767;SDS011;3928;42.626;23.382;2023-11-21T03:09:20;5.43;;;4.30;;
7767;SDS011;3928;42.626;23.382;2023-11-21T03:11:47;7.07;;;5.03;;
7767;SDS011;3928;42.626;23.382;2023-11-21T03:14:14;8.80;;;4.33;;
7767;SDS011;3928;42.626;23.382;2023-11-21T03:16:42;5.37;;;4.10;;
7767;SDS011;3928;42.626;23.382;2023-11-21T03:19:10;4.50;;;3.90;;
7767;SDS011;3928;42.626;23.382;2023-11-21T03:21:37;5.20;;;3.37;;
7767;SDS011;3928;42.626;23.382;2023-11-21T03:24:04;5.93;;;4.10;;
7767;SDS011;3928;42.626;23.382;2023-11-21T03:26:32;4.93;;;3.60;;
7767;SDS011;3928;42.626;23.382;2023-11-21T03:28:59;4.77;;;3.63;;
7767;SDS011;3928;42.626;23.382;2023-11-21T03:31:26;6.27;;;3.80;;
7767;SDS011;3928;42.626;23.382;2023-11-21T03:33:54;4.63;;;3.43;;
7767;SDS011;3928;42.626;23.382;2023-11-21T03:36:21;5.43;;;4.00;;
7767;SDS011;3928;42.626;23.382;2023-11-21T03:38:50;5.03;;;3.83;;
7767;SDS011;3928;42.626;23.382;2023-11-21T03:41:17;5.13;;;4.03;;
7767;SDS011;3928;42.626;23.382;2023-11-21T03:43:44;6.03;;;4.57;;
7767;SDS011;3928;42.626;23.382;2023-11-21T03:46:10;5.83;;;4.50;;
7767;SDS011;3928;42.626;23.382;2023-11-21T03:48:38;7.37;;;3.90;;
7767;SDS011;3928;42.626;23.382;2023-11-21T03:51:06;5.33;;;3.27;;
7767;SDS011;3928;42.626;23.382;2023-11-21T03:53:33;4.77;;;3.97;;
7767;SDS011;3928;42.626;23.382;2023-11-21T03:56:01;7.93;;;5.63;;
7767;SDS011;3928;42.626;23.382;2023-11-21T03:58:29;10.87;;;5.93;;
7767;SDS011;3928;42.626;23.382;2023-11-21T04:00:56;7.67;;;5.43;;
7767;SDS011;3928;42.626;23.382;2023-11-21T04:03:22;10.10;;;6.00;;
7767;SDS011;3928;42.626;23.382;2023-11-21T04:05:49;11.70;;;8.03;;
7767;SDS011;3928;42.626;23.382;2023-11-21T04:08:17;12.53;;;8.03;;
7767;SDS011;3928;42.626;23.382;2023-11-21T04:10:44;11.67;;;8.43;;
7767;SDS011;3928;42.626;23.382;2023-11-21T04:13:11;13.60;;;8.33;;
7767;SDS011;3928;42.626;23.382;2023-11-21T04:15:38;15.50;;;8.93;;
7767;SDS011;3928;42.626;23.382;2023-11-21T04:18:05;10.30;;;7.30;;
7767;SDS011;3928;42.626;23.382;2023-11-21T04:20:32;9.53;;;6.80;;
7767;SDS011;3928;42.626;23.382;2023-11-21T04:22:59;9.70;;;5.27;;
7767;SDS011;3928;42.626;23.382;2023-11-21T04:25:27;7.37;;;4.80;;
7767;SDS011;3928;42.626;23.382;2023-11-21T04:27:54;8.00;;;4.73;;
7767;SDS011;3928;42.626;23.382;2023-11-21T04:30:21;7.40;;;4.53;;
7767;SDS011;3928;42.626;23.382;2023-11-21T04:32:48;5.03;;;4.20;;
7767;SDS011;3928;42.626;23.382;2023-11-21T04:35:16;5.30;;;4.60;;
7767;SDS011;3928;42.626;23.382;2023-11-21T04:37:43;9.47;;;4.50;;
7767;SDS011;3928;42.626;23.382;2023-11-21T04:40:10;7.20;;;4.40;;
7767;SDS011;3928;42.626;23.382;2023-11-21T04:42:39;5.73;;;4.13;;
7767;SDS011;3928;42.626;23.382;2023-11-21T04:45:05;4.90;;;3.90;;
7767;SDS011;3928;42.626;23.382;2023-11-21T04:47:34;6.97;;;4.63;;
7767;SDS011;3928;42.626;23.382;2023-11-21T04:50:02;5.90;;;4.53;;
7767;SDS011;3928;42.626;23.382;2023-11-21T04:52:29;6.67;;;4.60;;
7767;SDS011;3928;42.626;23.382;2023-11-21T04:54:56;5.53;;;4.27;;
7767;SDS011;3928;42.626;23.382;2023-11-21T04:57:23;5.97;;;4.00;;
7767;SDS011;3928;42.626;23.382;2023-11-21T04:59:52;5.57;;;3.90;;
7767;SDS011;3928;42.626;23.382;2023-11-21T05:02:19;4.73;;;3.50;;
7767;SDS011;3928;42.626;23.382;2023-11-21T05:04:46;4.70;;;4.03;;
7767;SDS011;3928;42.626;23.382;2023-11-21T05:07:13;5.10;;;4.23;;
7767;SDS011;3928;42.626;23.382;2023-11-21T05:09:41;4.33;;;3.40;;
7767;SDS011;3928;42.626;23.382;2023-11-21T05:12:09;4.30;;;3.63;;
7767;SDS011;3928;42.626;23.382;2023-11-21T05:14:37;4.63;;;3.80;;
7767;SDS011;3928;42.626;23.382;2023-11-21T05:17:05;4.87;;;3.27;;
7767;SDS011;3928;42.626;23.382;2023-11-21T05:19:33;174.00;;;95.17;;
7767;SDS011;3928;42.626;23.382;2023-11-21T05:22:01;40.80;;;25.07;;
7767;SDS011;3928;42.626;23.382;2023-11-21T05:24:28;7.37;;;5.03;;
7767;SDS011;3928;42.626;23.382;2023-11-21T05:26:55;4.77;;;4.07;;
7767;SDS011;3928;42.626;23.382;2023-11-21T05:29:23;5.60;;;3.70;;
7767;SDS011;3928;42.626;23.382;2023-11-21T05:31:50;6.30;;;4.17;;
7767;SDS011;3928;42.626;23.382;2023-11-21T05:34:19;3.90;;;3.57;;
7767;SDS011;3928;42.626;23.382;2023-11-21T05:36:49;6.90;;;4.27;;
7767;SDS011;3928;42.626;23.382;2023-11-21T05:39:16;4.30;;;3.63;;
7767;SDS011;3928;42.626;23.382;2023-11-21T05:41:43;4.40;;;3.60;;
7767;SDS011;3928;42.626;23.382;2023-11-21T05:44:10;4.77;;;3.90;;
7767;SDS011;3928;42.626;23.382;2023-11-21T05:46:39;9.77;;;4.80;;
7767;SDS011;3928;42.626;23.382;2023-11-21T05:49:07;7.43;;;4.13;;
7767;SDS011;3928;42.626;23.382;2023-11-21T05:51:35;7.50;;;4.40;;
7767;SDS011;3928;42.626;23.382;2023-11-21T05:54:03;5.90;;;4.37;;
7767;SDS011;3928;42.626;23.382;2023-11-21T05:56:30;8.53;;;4.40;;
7767;SDS011;3928;42.626;23.382;2023-11-21T05:58:57;8.20;;;4.30;;
7767;SDS011;3928;42.626;23.382;2023-11-21T06:01:25;4.33;;;3.53;;
7767;SDS011;3928;42.626;23.382;2023-11-21T06:03:53;4.70;;;3.60;;
7767;SDS011;3928;42.626;23.382;2023-11-21T06:06:20;6.53;;;4.03;;
7767;SDS011;3928;42.626;23.382;2023-11-21T06:08:51;6.57;;;4.50;;
7767;SDS011;3928;42.626;23.382;2023-11-21T06:11:18;6.00;;;4.83;;
7767;SDS011;3928;42.626;23.382;2023-11-21T06:13:44;8.03;;;4.33;;
7767;SDS011;3928;42.626;23.382;2023-11-21T06:16:13;6.80;;;4.47;;
7767;SDS011;3928;42.626;23.382;2023-11-21T06:18:42;5.30;;;4.00;;
7767;SDS011;3928;42.626;23.382;2023-11-21T06:21:10;5.30;;;4.03;;
7767;SDS011;3928;42.626;23.382;2023-11-21T06:23:37;4.63;;;3.80;;
7767;SDS011;3928;42.626;23.382;2023-11-21T06:26:05;7.73;;;3.83;;
7767;SDS011;3928;42.626;23.382;2023-11-21T06:28:34;6.77;;;4.67;;
7767;SDS011;3928;42.626;23.382;2023-11-21T06:31:01;9.30;;;5.57;;
7767;SDS011;3928;42.626;23.382;2023-11-21T06:33:30;12.13;;;4.90;;
7767;SDS011;3928;42.626;23.382;2023-11-21T06:35:57;9.23;;;5.20;;
7767;SDS011;3928;42.626;23.382;2023-11-21T06:38:24;9.67;;;5.97;;
7767;SDS011;3928;42.626;23.382;2023-11-21T06:40:55;17.47;;;10.30;;
7767;SDS011;3928;42.626;23.382;2023-11-21T06:43:23;16.80;;;11.03;;
7767;SDS011;3928;42.626;23.382;2023-11-21T06:45:50;20.27;;;12.07;;
7767;SDS011;3928;42.626;23.382;2023-11-21T06:48:17;24.83;;;13.57;;
7767;SDS011;3928;42.626;23.382;2023-11-21T06:50:44;81.53;;;46.03;;
7767;SDS011;3928;42.626;23.382;2023-11-21T06:53:11;39.60;;;25.40;;
7767;SDS011;3928;42.626;23.382;2023-11-21T06:55:38;22.97;;;14.87;;
7767;SDS011;3928;42.626;23.382;2023-11-21T06:58:05;22.70;;;15.90;;
7767;SDS011;3928;42.626;23.382;2023-11-21T07:00:33;25.87;;;14.27;;
7767;SDS011;3928;42.626;23.382;2023-11-21T07:03:00;16.27;;;11.10;;
7767;SDS011;3928;42.626;23.382;2023-11-21T07:05:27;14.60;;;9.30;;
7767;SDS011;3928;42.626;23.382;2023-11-21T07:07:54;19.00;;;11.80;;
7767;SDS011;3928;42.626;23.382;2023-11-21T07:10:22;22.03;;;12.53;;
7767;SDS011;3928;42.626;23.382;2023-11-21T07:12:49;15.93;;;10.87;;
7767;SDS011;3928;42.626;23.382;2023-11-21T07:15:16;16.37;;;10.83;;
7767;SDS011;3928;42.626;23.382;2023-11-21T07:17:46;16.40;;;10.90;;
7767;SDS011;3928;42.626;23.382;2023-11-21T07:20:13;17.57;;;11.13;;
7767;SDS011;3928;42.626;23.382;2023-11-21T07:22:42;15.97;;;10.23;;
7767;SDS011;3928;42.626;23.382;2023-11-21T07:25:09;37.60;;;23.97;;
7767;SDS011;3928;42.626;23.382;2023-11-21T07:27:36;18.43;;;12.63;;
7767;SDS011;3928;42.626;23.382;2023-11-21T07:30:03;10.63;;;7.23;;
7767;SDS011;3928;42.626;23.382;2023-11-21T07:32:31;10.03;;;7.83;;
7767;SDS011;3928;42.626;23.382;2023-11-21T07:34:59;9.37;;;6.70;;
7767;SDS011;3928;42.626;23.382;2023-11-21T07:37:26;13.00;;;7.63;;
7767;SDS011;3928;42.626;23.382;2023-11-21T07:39:54;13.90;;;8.13;;
7767;SDS011;3928;42.626;23.382;2023-11-21T07:42:21;9.80;;;7.60;;
7767;SDS011;3928;42.626;23.382;2023-11-21T07:44:49;9.37;;;7.83;;
7767;SDS011;3928;42.626;23.382;2023-11-21T07:47:17;11.40;;;7.97;;
7767;SDS011;3928;42.626;23.382;2023-11-21T07:49:44;11.70;;;8.53;;
7767;SDS011;3928;42.626;23.382;2023-11-21T07:52:13;12.50;;;8.27;;
7767;SDS011;3928;42.626;23.382;2023-11-21T07:54:41;11.10;;;9.00;;
7767;SDS011;3928;42.626;23.382;2023-11-21T07:57:08;13.50;;;7.80;;
7767;SDS011;3928;42.626;23.382;2023-11-21T07:59:38;11.67;;;7.47;;
7767;SDS011;3928;42.626;23.382;2023-11-21T08:02:05;17.83;;;8.20;;
7767;SDS011;3928;42.626;23.382;2023-11-21T08:04:33;10.73;;;7.67;;
7767;SDS011;3928;42.626;23.382;2023-11-21T08:07:00;12.70;;;8.40;;
7767;SDS011;3928;42.626;23.382;2023-11-21T08:09:30;13.57;;;8.03;;
7767;SDS011;3928;42.626;23.382;2023-11-21T08:11:58;19.40;;;7.63;;
7767;SDS011;3928;42.626;23.382;2023-11-21T08:14:27;18.10;;;8.13;;
7767;SDS011;3928;42.626;23.382;2023-11-21T08:16:54;10.57;;;8.50;;
7767;SDS011;3928;42.626;23.382;2023-11-21T08:19:22;13.60;;;7.73;;
7767;SDS011;3928;42.626;23.382;2023-11-21T08:21:50;18.60;;;9.13;;
7767;SDS011;3928;42.626;23.382;2023-11-21T08:24:19;15.77;;;8.63;;
7767;SDS011;3928;42.626;23.382;2023-11-21T08:26:48;16.27;;;8.37;;
7767;SDS011;3928;42.626;23.382;2023-11-21T08:29:15;14.80;;;9.13;;
7767;SDS011;3928;42.626;23.382;2023-11-21T08:31:42;14.33;;;8.93;;
7767;SDS011;3928;42.626;23.382;2023-11-21T08:34:09;14.10;;;8.53;;
7767;SDS011;3928;42.626;23.382;2023-11-21T08:36:40;15.43;;;9.17;;
7767;SDS011;3928;42.626;23.382;2023-11-21T08:39:08;13.20;;;9.07;;
7767;SDS011;3928;42.626;23.382;2023-11-21T08:41:35;13.33;;;9.47;;
7767;SDS011;3928;42.626;23.382;2023-11-21T08:44:04;18.40;;;9.80;;
7767;SDS011;3928;42.626;23.382;2023-11-21T08:46:33;19.30;;;9.37;;
7767;SDS011;3928;42.626;23.382;2023-11-21T08:49:03;18.23;;;9.90;;
7767;SDS011;3928;42.626;23.382;2023-11-21T08:51:31;14.40;;;9.03;;
7767;SDS011;3928;42.626;23.382;2023-11-21T08:53:58;16.47;;;9.23;;
7767;SDS011;3928;42.626;23.382;2023-11-21T08:56:29;18.10;;;9.70;;
7767;SDS011;3928;42.626;23.382;2023-11-21T08:58:56;16.47;;;10.07;;
7767;SDS011;3928;42.626;23.382;2023-11-21T09:01:27;19.43;;;9.37;;
7767;SDS011;3928;42.626;23.382;2023-11-21T09:03:53;35.97;;;22.30;;
7767;SDS011;3928;42.626;23.382;2023-11-21T09:06:20;68.10;;;42.23;;
7767;SDS011;3928;42.626;23.382;2023-11-21T09:08:47;99.97;;;61.07;;
7767;SDS011;3928;42.626;23.382;2023-11-21T09:11:14;31.67;;;20.67;;
7767;SDS011;3928;42.626;23.382;2023-11-21T09:13:41;18.80;;;12.03;;
7767;SDS011;3928;42.626;23.382;2023-11-21T09:16:08;19.43;;;12.70;;
7767;SDS011;3928;42.626;23.382;2023-11-21T09:18:37;22.23;;;14.17;;
7767;SDS011;3928;42.626;23.382;2023-11-21T09:21:04;21.13;;;13.40;;
7767;SDS011;3928;42.626;23.382;2023-11-21T09:23:31;22.07;;;12.93;;
7767;SDS011;3928;42.626;23.382;2023-11-21T09:25:58;21.43;;;13.03;;
7767;SDS011;3928;42.626;23.382;2023-11-21T09:28:26;18.83;;;12.77;;
7767;SDS011;3928;42.626;23.382;2023-11-21T09:30:53;20.87;;;13.63;;
7767;SDS011;3928;42.626;23.382;2023-11-21T09:33:20;19.57;;;12.57;;
7767;SDS011;3928;42.626;23.382;2023-11-21T09:35:48;20.47;;;13.90;;
7767;SDS011;3928;42.626;23.382;2023-11-21T09:38:16;21.20;;;13.63;;
7767;SDS011;3928;42.626;23.382;2023-11-21T09:40:42;18.87;;;13.73;;
7767;SDS011;3928;42.626;23.382;2023-11-21T09:43:13;20.63;;;12.73;;
7767;SDS011;3928;42.626;23.382;2023-11-21T09:45:44;28.27;;;12.37;;
7767;SDS011;3928;42.626;23.382;2023-11-21T09:48:12;23.00;;;12.47;;
7767;SDS011;3928;42.626;23.382;2023-11-21T09:50:40;18.77;;;11.83;;
7767;SDS011;3928;42.626;23.382;2023-11-21T09:53:11;15.17;;;10.90;;
7767;SDS011;3928;42.626;23.382;2023-11-21T09:55:44;14.47;;;11.83;;
7767;SDS011;3928;42.626;23.382;2023-11-21T09:58:11;14.13;;;10.57;;
7767;SDS011;3928;42.626;23.382;2023-11-21T10:00:43;15.30;;;11.07;;
7767;SDS011;3928;42.626;23.382;2023-11-21T10:03:10;15.30;;;10.67;;
7767;SDS011;3928;42.626;23.382;2023-11-21T10:05:38;14.47;;;10.87;;
7767;SDS011;3928;42.626;23.382;2023-11-21T10:08:07;15.53;;;11.40;;
7767;SDS011;3928;42.626;23.382;2023-11-21T10:10:37;18.27;;;11.67;;
7767;SDS011;3928;42.626;23.382;2023-11-21T10:13:06;17.33;;;10.30;;
7767;SDS011;3928;42.626;23.382;2023-11-21T10:15:35;19.37;;;9.83;;
7767;SDS011;3928;42.626;23.382;2023-11-21T10:18:03;16.10;;;10.23;;
7767;SDS011;3928;42.626;23.382;2023-11-21T10:20:31;12.67;;;8.90;;
7767;SDS011;3928;42.626;23.382;2023-11-21T10:22:59;12.93;;;9.40;;
7767;SDS011;3928;42.626;23.382;2023-11-21T10:25:28;13.63;;;10.47;;
7767;SDS011;3928;42.626;23.382;2023-11-21T10:27:59;15.33;;;10.23;;
7767;SDS011;3928;42.626;23.382;2023-11-21T10:30:32;17.13;;;9.27;;
7767;SDS011;3928;42.626;23.382;2023-11-21T10:33:02;13.73;;;8.27;;
7767;SDS011;3928;42.626;23.382;2023-11-21T10:35:39;17.80;;;8.00;;
7767;SDS011;3928;42.626;23.382;2023-11-21T10:38:11;11.90;;;8.53;;
7767;SDS011;3928;42.626;23.382;2023-11-21T10:40:39;13.33;;;8.17;;
7767;SDS011;3928;42.626;23.382;2023-11-21T10:43:09;11.90;;;9.03;;
7767;SDS011;3928;42.626;23.382;2023-11-21T10:45:36;13.27;;;8.80;;
7767;SDS011;3928;42.626;23.382;2023-11-21T10:48:05;14.33;;;8.80;;
7767;SDS011;3928;42.626;23.382;2023-11-21T10:50:33;14.50;;;9.20;;
7767;SDS011;3928;42.626;23.382;2023-11-21T10:53:01;13.43;;;9.63;;
7767;SDS011;3928;42.626;23.382;2023-11-21T10:55:29;12.40;;;8.67;;
7767;SDS011;3928;42.626;23.382;2023-11-21T10:57:58;13.60;;;9.73;;
7767;SDS011;3928;42.626;23.382;2023-11-21T11:00:30;21.10;;;9.90;;
7767;SDS011;3928;42.626;23.382;2023-11-21T11:02:58;15.80;;;10.20;;
7767;SDS011;3928;42.626;23.382;2023-11-21T11:05:26;14.70;;;9.50;;
7767;SDS011;3928;42.626;23.382;2023-11-21T11:07:57;17.53;;;10.50;;
7767;SDS011;3928;42.626;23.382;2023-11-21T11:10:26;15.23;;;10.27;;
7767;SDS011;3928;42.626;23.382;2023-11-21T11:12:54;20.67;;;11.27;;
7767;SDS011;3928;42.626;23.382;2023-11-21T11:15:23;17.50;;;11.80;;
7767;SDS011;3928;42.626;23.382;2023-11-21T11:17:52;22.37;;;12.00;;
7767;SDS011;3928;42.626;23.382;2023-11-21T11:20:22;19.57;;;11.43;;
7767;SDS011;3928;42.626;23.382;2023-11-21T11:22:56;20.53;;;12.03;;
7767;SDS011;3928;42.626;23.382;2023-11-21T11:25:45;17.00;;;12.27;;
7767;SDS011;3928;42.626;23.382;2023-11-21T11:28:27;20.23;;;11.27;;
7767;SDS011;3928;42.626;23.382;2023-11-21T11:31:05;20.77;;;12.23;;
7767;SDS011;3928;42.626;23.382;2023-11-21T11:33:45;22.83;;;12.17;;
7767;SDS011;3928;42.626;23.382;2023-11-21T11:36:20;20.80;;;11.53;;
7767;SDS011;3928;42.626;23.382;2023-11-21T11:38:52;20.67;;;12.93;;
7767;SDS011;3928;42.626;23.382;2023-11-21T11:41:24;20.43;;;12.53;;
7767;SDS011;3928;42.626;23.382;2023-11-21T11:43:52;24.77;;;13.63;;
7767;SDS011;3928;42.626;23.382;2023-11-21T11:46:19;24.70;;;14.83;;
7767;SDS011;3928;42.626;23.382;2023-11-21T11:48:49;24.93;;;13.23;;
7767;SDS011;3928;42.626;23.382;2023-11-21T11:51:29;20.37;;;12.67;;
7767;SDS011;3928;42.626;23.382;2023-11-21T11:53:56;20.10;;;13.20;;
7767;SDS011;3928;42.626;23.382;2023-11-21T11:56:24;19.43;;;12.73;;
7767;SDS011;3928;42.626;23.382;2023-11-21T11:58:53;20.10;;;12.50;;
7767;SDS011;3928;42.626;23.382;2023-11-21T12:01:21;21.10;;;13.70;;
7767;SDS011;3928;42.626;23.382;2023-11-21T12:06:56;19.00;;;12.33;;
7767;SDS011;3928;42.626;23.382;2023-11-21T12:09:28;21.63;;;12.90;;
7767;SDS011;3928;42.626;23.382;2023-11-21T12:11:56;17.93;;;12.87;;
7767;SDS011;3928;42.626;23.382;2023-11-21T12:14:23;24.73;;;12.37;;
7767;SDS011;3928;42.626;23.382;2023-11-21T12:16:50;20.43;;;12.47;;
7767;SDS011;3928;42.626;23.382;2023-11-21T12:19:18;27.47;;;13.37;;
7767;SDS011;3928;42.626;23.382;2023-11-21T12:21:49;25.07;;;13.93;;
7767;SDS011;3928;42.626;23.382;2023-11-21T12:24:17;21.47;;;14.00;;
7767;SDS011;3928;42.626;23.382;2023-11-21T12:26:44;190.40;;;117.97;;
7767;SDS011;3928;42.626;23.382;2023-11-21T12:29:11;120.17;;;78.20;;
7767;SDS011;3928;42.626;23.382;2023-11-21T12:31:38;58.20;;;40.13;;
7767;SDS011;3928;42.626;23.382;2023-11-21T12:34:06;38.03;;;27.17;;
7767;SDS011;3928;42.626;23.382;2023-11-21T12:36:36;27.57;;;19.03;;
7767;SDS011;3928;42.626;23.382;2023-11-21T12:39:05;30.43;;;14.60;;
7767;SDS011;3928;42.626;23.382;2023-11-21T12:41:34;22.20;;;14.07;;
7767;SDS011;3928;42.626;23.382;2023-11-21T12:44:01;19.10;;;14.27;;
7767;SDS011;3928;42.626;23.382;2023-11-21T12:46:28;24.20;;;15.03;;
7767;SDS011;3928;42.626;23.382;2023-11-21T12:48:57;25.13;;;15.87;;
7767;SDS011;3928;42.626;23.382;2023-11-21T12:51:24;23.37;;;15.67;;
7767;SDS011;3928;42.626;23.382;2023-11-21T12:53:51;29.03;;;17.27;;
7767;SDS011;3928;42.626;23.382;2023-11-21T12:56:19;28.63;;;16.43;;
7767;SDS011;3928;42.626;23.382;2023-11-21T12:58:49;27.02;;;20.00;;
7767;SDS011;3928;42.626;23.382;2023-11-21T13:01:17;26.77;;;18.37;;
7767;SDS011;3928;42.626;23.382;2023-11-21T13:03:46;27.73;;;18.00;;
7767;SDS011;3928;42.626;23.382;2023-11-21T13:06:16;30.80;;;18.40;;
7767;SDS011;3928;42.626;23.382;2023-11-21T13:08:44;33.77;;;17.80;;
7767;SDS011;3928;42.626;23.382;2023-11-21T13:11:11;29.57;;;18.73;;
7767;SDS011;3928;42.626;23.382;2023-11-21T13:13:41;31.17;;;18.43;;
7767;SDS011;3928;42.626;23.382;2023-11-21T13:16:10;30.97;;;19.63;;
7767;SDS011;3928;42.626;23.382;2023-11-21T13:18:37;26.63;;;17.90;;
7767;SDS011;3928;42.626;23.382;2023-11-21T13:21:05;25.00;;;18.53;;
7767;SDS011;3928;42.626;23.382;2023-11-21T13:23:38;32.63;;;20.13;;
7767;SDS011;3928;42.626;23.382;2023-11-21T13:26:06;24.73;;;17.27;;
7767;SDS011;3928;42.626;23.382;2023-11-21T13:28:33;28.73;;;18.70;;
7767;SDS011;3928;42.626;23.382;2023-11-21T13:31:04;29.73;;;18.73;;
7767;SDS011;3928;42.626;23.382;2023-11-21T13:33:45;24.43;;;17.77;;
7767;SDS011;3928;42.626;23.382;2023-11-21T13:36:16;32.28;;;21.85;;
7767;SDS011;3928;42.626;23.382;2023-11-21T13:38:47;33.17;;;18.83;;
7767;SDS011;3928;42.626;23.382;2023-11-21T13:41:14;31.40;;;18.13;;
7767;SDS011;3928;42.626;23.382;2023-11-21T13:43:43;30.03;;;18.23;;
7767;SDS011;3928;42.626;23.382;2023-11-21T13:46:17;29.33;;;19.17;;
7767;SDS011;3928;42.626;23.382;2023-11-21T13:48:47;58.23;;;36.73;;
7767;SDS011;3928;42.626;23.382;2023-11-21T13:51:16;36.10;;;18.90;;
7767;SDS011;3928;42.626;23.382;2023-11-21T13:53:43;36.03;;;23.27;;
7767;SDS011;3928;42.626;23.382;2023-11-21T13:56:13;35.83;;;21.33;;
7767;SDS011;3928;42.626;23.382;2023-11-21T13:58:44;33.30;;;18.83;;
7767;SDS011;3928;42.626;23.382;2023-11-21T14:01:17;35.67;;;20.30;;
7767;SDS011;3928;42.626;23.382;2023-11-21T14:04:06;36.23;;;20.53;;
7767;SDS011;3928;42.626;23.382;2023-11-21T14:09:14;35.17;;;22.67;;
7767;SDS011;3928;42.626;23.382;2023-11-21T14:11:48;42.90;;;21.80;;
7767;SDS011;3928;42.626;23.382;2023-11-21T14:14:16;37.20;;;21.20;;
7767;SDS011;3928;42.626;23.382;2023-11-21T14:16:48;35.00;;;22.00;;
7767;SDS011;3928;42.626;23.382;2023-11-21T14:19:16;36.13;;;21.10;;
7767;SDS011;3928;42.626;23.382;2023-11-21T14:21:43;32.93;;;20.30;;
7767;SDS011;3928;42.626;23.382;2023-11-21T14:24:12;33.00;;;21.53;;
7767;SDS011;3928;42.626;23.382;2023-11-21T14:26:43;34.60;;;21.00;;
7767;SDS011;3928;42.626;23.382;2023-11-21T14:29:11;34.07;;;23.03;;
7767;SDS011;3928;42.626;23.382;2023-11-21T14:31:39;37.10;;;21.73;;
7767;SDS011;3928;42.626;23.382;2023-11-21T14:34:08;27.07;;;16.07;;
7767;SDS011;3928;42.626;23.382;2023-11-21T14:36:37;22.93;;;16.43;;
7767;SDS011;3928;42.626;23.382;2023-11-21T14:39:04;24.90;;;14.77;;
7767;SDS011;3928;42.626;23.382;2023-11-21T14:41:34;31.03;;;17.90;;
7767;SDS011;3928;42.626;23.382;2023-11-21T14:44:03;36.73;;;21.00;;
7767;SDS011;3928;42.626;23.382;2023-11-21T14:46:32;37.00;;;20.20;;
7767;SDS011;3928;42.626;23.382;2023-11-21T14:49:00;42.47;;;22.03;;
7767;SDS011;3928;42.626;23.382;2023-11-21T14:51:45;41.13;;;23.67;;
7767;SDS011;3928;42.626;23.382;2023-11-21T14:54:26;37.77;;;22.90;;
7767;SDS011;3928;42.626;23.382;2023-11-21T14:57:05;41.30;;;22.27;;
7767;SDS011;3928;42.626;23.382;2023-11-21T14:59:36;36.20;;;21.80;;
7767;SDS011;3928;42.626;23.382;2023-11-21T15:02:02;38.53;;;22.83;;